Loading Events

« All Events

  • This event has passed.

Allhelgonaflygning

November 6 @ 21:00 - 23:00

Den här helgen är det allhelgonahelgen. För er som kan och vill flyger vi för Vingen och alla andra var och en vill minnas.

1. Departure Kutaisi RWY 07 10DME 10000ft
2. Sväng vänster mot WP2, forma upp i en 5nm trail mellan flights
3. Runda WP2 vänstersväng kurs kurs 248 1500ft mot Kutaisi
4. Varje flight släpper facklor och kolapapper över Kutaisi
5. Fortsätt kurs 248 10 DME 3000ft, sen vänstersväng mot Entry West 1500ft för straight-in approach and landing Kutaisi RWY 07

Contract speed 270 kts

6/11-2022 kl 2100
METAR UGKO 062050Z 07704KT FEW/SCT 8/10 SCT 23/24 Q2990/1013

Details

Date:
November 6
Time:
21:00 - 23:00
Event Category:

Venue

Caucasus

Submit a Comment

Currently Registered (8)

-= J i n x =- AJS37 Bankler F/A-18C Creedarn Vad som Goofy79 AJS37
Johnny F/A-18C leka f18/AV8B Troll ajs37 AV8B Urist AJS37 / M2000C

Registrations are closed for this event